createdAt,value
2023-05-24T00:00:32.843Z,5.57
2023-05-24T00:05:30.479Z,5.35
2023-05-24T00:10:27.320Z,6.30
2023-05-24T00:15:24.212Z,6.15
2023-05-24T00:20:21.836Z,6.75
2023-05-24T00:25:18.657Z,6.22
2023-05-24T00:30:15.546Z,6.55
2023-05-24T00:35:12.434Z,6.30
2023-05-24T00:40:10.914Z,5.90
2023-05-24T00:45:08.824Z,6.68
2023-05-24T00:50:08.217Z,5.68
2023-05-24T00:55:07.058Z,4.72
2023-05-24T01:00:07.126Z,5.18
2023-05-24T01:05:05.242Z,6.90
2023-05-24T01:10:06.583Z,5.50
2023-05-24T01:15:18.072Z,5.50
2023-05-24T01:20:18.073Z,5.97
2023-05-24T01:25:23.298Z,5.65
2023-05-24T01:30:21.227Z,5.88
2023-05-24T01:35:18.679Z,6.38
2023-05-24T01:40:15.903Z,5.78
2023-05-24T01:45:20.293Z,7.05
2023-05-24T01:55:18.361Z,5.38
2023-05-24T02:00:19.324Z,5.55
2023-05-24T02:05:16.209Z,7.43
2023-05-24T02:10:13.762Z,6.47
2023-05-24T02:15:14.012Z,6.22
2023-05-24T02:20:12.889Z,5.72
2023-05-24T02:25:09.928Z,6.03
2023-05-24T02:30:08.661Z,5.72
2023-05-24T02:35:07.010Z,5.20
2023-05-24T02:40:04.759Z,5.28
2023-05-24T02:45:01.998Z,5.22
2023-05-24T02:49:59.454Z,3.90
2023-05-24T02:54:56.284Z,5.32
2023-05-24T02:59:53.157Z,8.30
2023-05-24T03:04:50.160Z,6.03
2023-05-24T03:09:48.000Z,6.05
2023-05-24T03:14:44.793Z,8.05
2023-05-24T03:19:41.773Z,10.13
2023-05-24T03:24:38.673Z,10.00
2023-05-24T03:29:36.603Z,10.57
2023-05-24T03:34:33.825Z,11.65
2023-05-24T03:39:30.792Z,10.63
2023-05-24T03:44:40.924Z,10.38
2023-05-24T03:49:37.777Z,8.75
2023-05-24T03:54:34.727Z,10.05
2023-05-24T03:59:35.532Z,10.27
2023-05-24T04:04:33.642Z,8.75
2023-05-24T04:09:30.483Z,6.72
2023-05-24T04:14:28.428Z,5.68
2023-05-24T04:19:25.266Z,4.50
2023-05-24T04:24:22.792Z,4.40
2023-05-24T04:29:19.656Z,4.15
2023-05-24T04:34:16.557Z,3.92
2023-05-24T04:39:13.464Z,4.43
2023-05-24T04:44:10.988Z,4.20
2023-05-24T04:49:08.231Z,4.80
2023-05-24T04:54:08.212Z,4.05
2023-05-24T04:59:05.661Z,5.63
2023-05-24T05:04:04.211Z,4.68
2023-05-24T05:09:01.339Z,4.50
2023-05-24T05:13:58.169Z,5.15
2023-05-24T05:18:55.044Z,4.78
2023-05-24T05:23:54.248Z,4.70
2023-05-24T05:28:52.353Z,4.55
2023-05-24T05:33:52.095Z,5.18
2023-05-24T05:38:49.208Z,4.95
2023-05-24T05:43:46.936Z,4.95
2023-05-24T05:48:46.220Z,5.18
2023-05-24T05:53:43.593Z,4.53
2023-05-24T05:58:41.094Z,5.10
2023-05-24T06:03:39.796Z,5.45
2023-05-24T06:08:41.283Z,4.75
2023-05-24T06:13:38.152Z,5.37
2023-05-24T06:18:35.904Z,4.95
2023-05-24T06:23:33.389Z,4.70
2023-05-24T06:28:30.209Z,5.15
2023-05-24T06:33:27.314Z,4.15
2023-05-24T06:38:24.429Z,4.32
2023-05-24T06:43:22.079Z,4.63
2023-05-24T06:48:19.197Z,4.05
2023-05-24T06:53:16.449Z,4.13
2023-05-24T06:58:13.906Z,4.07
2023-05-24T07:03:13.193Z,4.60
2023-05-24T07:08:10.194Z,4.03
2023-05-24T07:13:07.333Z,3.67
2023-05-24T07:18:04.933Z,4.68
2023-05-24T07:23:03.459Z,3.80
2023-05-24T07:28:01.156Z,3.25
2023-05-24T07:32:58.191Z,3.80
2023-05-24T07:37:55.072Z,3.65
2023-05-24T07:42:52.527Z,3.67
2023-05-24T07:47:55.190Z,3.70
2023-05-24T07:52:55.481Z,3.90
2023-05-24T07:57:53.223Z,3.45
2023-05-24T08:02:50.895Z,3.25
2023-05-24T08:07:51.952Z,3.03
2023-05-24T08:12:52.388Z,2.97
2023-05-24T08:17:50.196Z,2.70
2023-05-24T08:22:48.426Z,2.60
2023-05-24T08:27:45.629Z,2.40
2023-05-24T08:32:47.356Z,2.92
2023-05-24T08:37:45.811Z,3.08
2023-05-24T08:42:45.473Z,2.65
2023-05-24T08:47:43.855Z,2.90
2023-05-24T08:52:46.969Z,2.78
2023-05-24T08:57:46.007Z,3.55
2023-05-24T09:02:45.233Z,2.30
2023-05-24T09:07:44.567Z,3.08
2023-05-24T09:12:57.814Z,3.13
2023-05-24T09:17:57.656Z,2.63
2023-05-24T09:22:55.266Z,2.45
2023-05-24T09:27:53.930Z,2.80
2023-05-24T09:32:59.441Z,3.10
2023-05-24T09:38:00.236Z,3.28
2023-05-24T09:43:09.230Z,3.05
2023-05-24T09:48:11.429Z,3.40
2023-05-24T09:53:08.571Z,2.80
2023-05-24T09:58:07.931Z,2.90
2023-05-24T10:03:06.697Z,3.10
2023-05-24T10:08:05.030Z,2.72
2023-05-24T10:13:03.315Z,2.60
2023-05-24T10:18:02.212Z,2.80
2023-05-24T10:23:01.294Z,2.75
2023-05-24T10:28:01.367Z,2.90
2023-05-24T10:33:01.296Z,3.13
2023-05-24T10:37:59.063Z,2.67
2023-05-24T10:42:56.028Z,3.42
2023-05-24T10:47:53.951Z,3.22
2023-05-24T10:52:51.652Z,2.67
2023-05-24T10:57:48.612Z,3.42
2023-05-24T11:02:48.911Z,3.33
2023-05-24T11:07:45.900Z,3.40
2023-05-24T11:12:44.473Z,3.55
2023-05-24T11:18:16.945Z,3.53
2023-05-24T11:23:16.858Z,3.60
2023-05-24T11:28:17.666Z,3.15
2023-05-24T11:33:15.779Z,2.90
2023-05-24T11:38:13.666Z,3.78
2023-05-24T11:43:17.100Z,2.80
2023-05-24T11:53:15.874Z,3.38
2023-05-24T11:58:23.258Z,4.82
2023-05-24T12:03:21.492Z,2.95
2023-05-24T12:08:21.566Z,3.28
2023-05-24T12:13:22.812Z,3.85
2023-05-24T12:18:20.082Z,3.50
2023-05-24T12:23:18.883Z,3.15
2023-05-24T12:28:16.137Z,4.35
2023-05-24T12:33:14.076Z,3.28
2023-05-24T12:38:11.480Z,2.90
2023-05-24T12:43:09.916Z,3.22
2023-05-24T12:48:07.336Z,3.10
2023-05-24T12:53:05.157Z,3.17
2023-05-24T12:58:09.087Z,2.45
2023-05-24T13:03:06.414Z,3.00
2023-05-24T13:08:04.254Z,3.05
2023-05-24T13:13:01.420Z,3.22
2023-05-24T13:17:58.436Z,2.90
2023-05-24T13:22:55.414Z,2.50
2023-05-24T13:27:53.073Z,3.80
2023-05-24T13:32:50.390Z,3.92
2023-05-24T13:38:09.069Z,5.10
2023-05-24T13:43:07.435Z,3.13
2023-05-24T13:48:04.831Z,3.40
2023-05-24T13:53:04.235Z,2.90
2023-05-24T13:58:04.145Z,2.85
2023-05-24T14:03:15.741Z,3.58
2023-05-24T14:08:13.460Z,3.00
2023-05-24T14:13:34.284Z,2.75
2023-05-24T14:18:32.453Z,3.00
2023-05-24T14:23:34.361Z,2.90
2023-05-24T14:28:31.271Z,3.10
2023-05-24T14:33:30.773Z,3.22
2023-05-24T14:38:27.713Z,3.63
2023-05-24T14:43:24.631Z,3.40
2023-05-24T14:48:21.808Z,4.28
2023-05-24T14:53:21.197Z,3.55
2023-05-24T14:58:18.357Z,4.47
2023-05-24T15:03:15.532Z,6.15
2023-05-24T15:08:14.989Z,3.88
2023-05-24T15:13:12.609Z,3.38
2023-05-24T15:18:09.651Z,3.03
2023-05-24T15:23:10.016Z,4.28
2023-05-24T15:28:07.033Z,3.35
2023-05-24T15:33:04.810Z,2.95
2023-05-24T15:38:04.204Z,3.45
2023-05-24T15:43:01.552Z,3.08
2023-05-24T15:47:58.896Z,3.78
2023-05-24T15:52:56.684Z,3.22
2023-05-24T15:57:53.629Z,3.47
2023-05-24T16:02:50.550Z,3.55
2023-05-24T16:07:47.401Z,9.05
2023-05-24T16:12:45.894Z,2.95
2023-05-24T16:17:44.153Z,3.25
2023-05-24T16:22:47.707Z,3.13
2023-05-24T16:27:46.024Z,3.20
2023-05-24T16:32:46.416Z,2.75
2023-05-24T16:37:48.329Z,3.20
2023-05-24T16:42:46.117Z,3.40
2023-05-24T16:47:44.649Z,4.18
2023-05-24T16:52:42.500Z,4.65
2023-05-24T16:57:41.270Z,3.55
2023-05-24T17:02:43.902Z,4.00
2023-05-24T17:07:47.828Z,4.03
2023-05-24T17:12:47.303Z,3.38
2023-05-24T17:17:47.194Z,3.65
2023-05-24T17:22:47.018Z,3.47
2023-05-24T17:27:44.534Z,3.35
2023-05-24T17:32:47.138Z,3.40
2023-05-24T17:37:49.834Z,4.07
2023-05-24T17:42:48.984Z,3.70
2023-05-24T17:47:46.760Z,3.33
2023-05-24T17:52:46.483Z,3.33
2023-05-24T17:57:46.051Z,14.20
2023-05-24T18:02:43.115Z,4.18
2023-05-24T18:07:43.531Z,3.05
2023-05-24T18:12:50.962Z,3.58
2023-05-24T18:17:50.181Z,4.47
2023-05-24T18:22:54.313Z,4.07
2023-05-24T18:27:59.028Z,4.47
2023-05-24T18:33:06.311Z,4.18
2023-05-24T18:38:05.525Z,3.83
2023-05-24T18:43:03.165Z,3.70
2023-05-24T18:48:00.710Z,4.57
2023-05-24T18:52:57.705Z,3.58
2023-05-24T18:57:54.892Z,4.13
2023-05-24T19:02:57.090Z,4.10
2023-05-24T19:07:56.891Z,3.78
2023-05-24T19:12:53.910Z,4.80
2023-05-24T19:17:52.691Z,4.22
2023-05-24T19:22:50.757Z,4.57
2023-05-24T19:32:52.896Z,4.50
2023-05-24T19:37:51.614Z,5.22
2023-05-24T19:42:48.592Z,4.60
2023-05-24T19:47:47.954Z,5.07
2023-05-24T19:52:44.891Z,5.78
2023-05-24T19:57:42.543Z,4.82
2023-05-24T20:02:39.527Z,4.25
2023-05-24T20:07:36.657Z,3.97
2023-05-24T20:12:33.971Z,4.15
2023-05-24T20:17:31.542Z,6.22
2023-05-24T20:22:28.471Z,6.82
2023-05-24T20:27:25.370Z,7.65
2023-05-24T20:32:22.302Z,5.80
2023-05-24T20:37:19.952Z,5.80
2023-05-24T20:42:17.787Z,5.00
2023-05-24T20:47:16.056Z,4.43
2023-05-24T20:52:16.749Z,4.40
2023-05-24T20:57:14.597Z,3.88
2023-05-24T21:02:11.669Z,4.18
2023-05-24T21:07:08.571Z,3.40
2023-05-24T21:12:06.354Z,3.50
2023-05-24T21:17:04.226Z,4.68
2023-05-24T21:22:01.014Z,4.13
2023-05-24T21:26:57.842Z,3.45
2023-05-24T21:31:54.702Z,3.67
2023-05-24T21:36:52.196Z,3.42
2023-05-24T21:41:49.041Z,3.55
2023-05-24T21:46:45.959Z,3.38
2023-05-24T21:51:43.050Z,3.30
2023-05-24T21:56:40.654Z,2.80
2023-05-24T22:01:37.444Z,3.10
2023-05-24T22:06:34.465Z,3.13
2023-05-24T22:11:32.367Z,3.20
2023-05-24T22:16:29.919Z,3.05
2023-05-24T22:21:32.301Z,3.40
2023-05-24T22:26:29.980Z,3.15
2023-05-24T22:31:28.437Z,3.92
2023-05-24T22:36:26.053Z,3.40
2023-05-24T22:41:22.880Z,3.15
2023-05-24T22:46:21.443Z,3.88
2023-05-24T22:51:18.759Z,3.40
2023-05-24T22:56:17.306Z,3.22
2023-05-24T23:01:15.075Z,3.45
2023-05-24T23:06:15.617Z,3.72
2023-05-24T23:11:12.573Z,3.50
2023-05-24T23:16:10.214Z,3.35
2023-05-24T23:21:09.515Z,2.92
2023-05-24T23:26:06.562Z,3.53
2023-05-24T23:31:03.344Z,3.78
2023-05-24T23:36:00.926Z,3.60
2023-05-24T23:40:57.924Z,3.83
2023-05-24T23:45:54.903Z,3.67
2023-05-24T23:50:54.746Z,4.18
2023-05-24T23:55:52.582Z,3.70
